BER8537 EDDB-EGPH
Flight info
| Callsign | BER8537 |
|---|---|
| Flight time | 1h 44m |
| Altitude | 36000 |
| Route | SUKIP3Q/06R SUKIP Y206 BUREL P203 HLZ L980 SAS DCT RKN L602 NALAX L46 ESHIN N110 ERKIT DCT AGPED |
| Aircraft | A320/M-SDE3FGHIRWY/LB1 |
Departure
| Time | 2026-05-07 17:07 |
|---|---|
| Airport | Berlin Brandenburg Airport (EDDB) |
Arrival
| Time | 2026-05-07 18:51 |
|---|---|
| Airport | Edinburgh Airport (EGPH) |
| Time | Latitude | Longitude | Altitude | Speed | Heading |
|---|---|---|---|---|---|
| 2026-05-07 16:10 | 52.36176 | 13.50737 | 155 ft | 0 kts | 67° |
| 2026-05-07 16:57 | 52.36174 | 13.50730 | 155 ft | 3 kts | 67° |
| 2026-05-07 16:58 | 52.36165 | 13.50689 | 154 ft | 4 kts | 72° |
| 2026-05-07 16:58 | 52.36158 | 13.50656 | 154 ft | 3 kts | 69° |
| 2026-05-07 16:58 | 52.36148 | 13.50616 | 154 ft | 4 kts | 68° |
| 2026-05-07 16:58 | 52.36138 | 13.50575 | 154 ft | 4 kts | 71° |
| 2026-05-07 16:59 | 52.36132 | 13.50534 | 154 ft | 4 kts | 98° |
| 2026-05-07 16:59 | 52.36142 | 13.50509 | 154 ft | 4 kts | 159° |
| 2026-05-07 16:59 | 52.36156 | 13.50500 | 154 ft | 0 kts | 159° |
| 2026-05-07 17:02 | 52.36126 | 13.50519 | 154 ft | 12 kts | 159° |
| 2026-05-07 17:02 | 52.36016 | 13.50586 | 154 ft | 17 kts | 160° |
| 2026-05-07 17:02 | 52.35930 | 13.50639 | 154 ft | 10 kts | 159° |
| 2026-05-07 17:03 | 52.35878 | 13.50638 | 154 ft | 6 kts | 188° |
| 2026-05-07 17:03 | 52.35854 | 13.50631 | 154 ft | 2 kts | 188° |
| 2026-05-07 17:03 | 52.35784 | 13.50624 | 154 ft | 15 kts | 204° |
| 2026-05-07 17:03 | 52.35744 | 13.50503 | 154 ft | 10 kts | 245° |
| 2026-05-07 17:04 | 52.35723 | 13.50427 | 154 ft | 5 kts | 245° |
| 2026-05-07 17:04 | 52.35707 | 13.50362 | 154 ft | 9 kts | 249° |
| 2026-05-07 17:04 | 52.35662 | 13.50172 | 154 ft | 26 kts | 248° |
| 2026-05-07 17:04 | 52.35585 | 13.49848 | 154 ft | 33 kts | 250° |
| 2026-05-07 17:05 | 52.35498 | 13.49477 | 154 ft | 36 kts | 248° |
| 2026-05-07 17:05 | 52.35398 | 13.49081 | 154 ft | 39 kts | 248° |
| 2026-05-07 17:05 | 52.35308 | 13.48686 | 154 ft | 34 kts | 250° |
| 2026-05-07 17:05 | 52.35222 | 13.48468 | 154 ft | 16 kts | 187° |
| 2026-05-07 17:06 | 52.35169 | 13.48526 | 154 ft | 10 kts | 129° |
| 2026-05-07 17:06 | 52.35103 | 13.48633 | 154 ft | 18 kts | 110° |
| 2026-05-07 17:06 | 52.35078 | 13.48887 | 154 ft | 30 kts | 98° |
| 2026-05-07 17:06 | 52.35144 | 13.49374 | 154 ft | 71 kts | 69° |
| 2026-05-07 17:07 | 52.35392 | 13.50464 | 155 ft | 130 kts | 69° |
| 2026-05-07 17:07 | 52.35768 | 13.52095 | 215 ft | 171 kts | 72° |
| 2026-05-07 17:07 | 52.35767 | 13.53843 | 1072 ft | 153 kts | 131° |
| 2026-05-07 17:07 | 52.34919 | 13.54677 | 2074 ft | 136 kts | 151° |
| 2026-05-07 17:08 | 52.34076 | 13.55310 | 2734 ft | 139 kts | 148° |
| 2026-05-07 17:08 | 52.33080 | 13.55964 | 3350 ft | 163 kts | 167° |
| 2026-05-07 17:08 | 52.31993 | 13.56126 | 4509 ft | 155 kts | 169° |
| 2026-05-07 17:08 | 52.30752 | 13.55790 | 4469 ft | 213 kts | 213° |
| 2026-05-07 17:09 | 52.29582 | 13.54090 | 4758 ft | 235 kts | 227° |
| 2026-05-07 17:09 | 52.28432 | 13.52003 | 5169 ft | 260 kts | 229° |
| 2026-05-07 17:09 | 52.27262 | 13.49625 | 5826 ft | 274 kts | 241° |
| 2026-05-07 17:09 | 52.26556 | 13.46706 | 6712 ft | 279 kts | 258° |
| 2026-05-07 17:10 | 52.26363 | 13.43547 | 7615 ft | 282 kts | 271° |
| 2026-05-07 17:10 | 52.26363 | 13.40341 | 8572 ft | 284 kts | 270° |
| 2026-05-07 17:10 | 52.26350 | 13.37085 | 9483 ft | 289 kts | 270° |
| 2026-05-07 17:10 | 52.26332 | 13.33793 | 10378 ft | 292 kts | 270° |
| 2026-05-07 17:11 | 52.26317 | 13.30461 | 11186 ft | 296 kts | 270° |
| 2026-05-07 17:11 | 52.26307 | 13.27079 | 12006 ft | 299 kts | 270° |
| 2026-05-07 17:11 | 52.26176 | 13.23671 | 12869 ft | 303 kts | 259° |
| 2026-05-07 17:11 | 52.25587 | 13.20389 | 13546 ft | 313 kts | 246° |
| 2026-05-07 17:12 | 52.24483 | 13.17128 | 13781 ft | 336 kts | 238° |
| 2026-05-07 17:12 | 52.23235 | 13.13822 | 13938 ft | 358 kts | 238° |
| 2026-05-07 17:12 | 52.21897 | 13.10284 | 14293 ft | 372 kts | 238° |
| 2026-05-07 17:12 | 52.20533 | 13.06663 | 14901 ft | 377 kts | 238° |
| 2026-05-07 17:13 | 52.19158 | 13.02991 | 15548 ft | 382 kts | 239° |
| 2026-05-07 17:13 | 52.17773 | 12.99279 | 15948 ft | 385 kts | 239° |
| 2026-05-07 17:13 | 52.16543 | 12.95401 | 16054 ft | 386 kts | 249° |
| 2026-05-07 17:13 | 52.15780 | 12.91229 | 16069 ft | 385 kts | 258° |
| 2026-05-07 17:14 | 52.15195 | 12.86981 | 16080 ft | 386 kts | 258° |
| 2026-05-07 17:14 | 52.14594 | 12.82683 | 16652 ft | 391 kts | 258° |
| 2026-05-07 17:14 | 52.13983 | 12.78353 | 17341 ft | 393 kts | 258° |
| 2026-05-07 17:14 | 52.13668 | 12.73936 | 17974 ft | 395 kts | 271° |
| 2026-05-07 17:15 | 52.13983 | 12.69497 | 18565 ft | 396 kts | 284° |
| 2026-05-07 17:15 | 52.14911 | 12.65280 | 19115 ft | 397 kts | 297° |
| 2026-05-07 17:15 | 52.16404 | 12.61496 | 19657 ft | 399 kts | 310° |
| 2026-05-07 17:15 | 52.18374 | 12.58305 | 20194 ft | 401 kts | 319° |
| 2026-05-07 17:16 | 52.20455 | 12.55255 | 20737 ft | 404 kts | 318° |
| 2026-05-07 17:16 | 52.22539 | 12.52157 | 21269 ft | 407 kts | 316° |
| 2026-05-07 17:16 | 52.24392 | 12.48658 | 21785 ft | 410 kts | 306° |
| 2026-05-07 17:16 | 52.25849 | 12.44634 | 22291 ft | 414 kts | 296° |
| 2026-05-07 17:17 | 52.26862 | 12.40215 | 22784 ft | 418 kts | 285° |
| 2026-05-07 17:17 | 52.27529 | 12.35585 | 23271 ft | 421 kts | 283° |
| 2026-05-07 17:17 | 52.28181 | 12.30919 | 23736 ft | 423 kts | 283° |
| 2026-05-07 17:17 | 52.28841 | 12.26214 | 24139 ft | 426 kts | 283° |
| 2026-05-07 17:18 | 52.29504 | 12.21481 | 24544 ft | 429 kts | 283° |
| 2026-05-07 17:18 | 52.30171 | 12.16711 | 24938 ft | 431 kts | 283° |
| 2026-05-07 17:18 | 52.30837 | 12.11923 | 25316 ft | 434 kts | 283° |
| 2026-05-07 17:18 | 52.31505 | 12.07100 | 25687 ft | 436 kts | 283° |
| 2026-05-07 17:19 | 52.32164 | 12.02316 | 26033 ft | 439 kts | 283° |
| 2026-05-07 17:19 | 52.32833 | 11.97437 | 26387 ft | 441 kts | 283° |
| 2026-05-07 17:19 | 52.33499 | 11.92534 | 26742 ft | 442 kts | 282° |
| 2026-05-07 17:19 | 52.34159 | 11.87618 | 27092 ft | 444 kts | 280° |
| 2026-05-07 17:20 | 52.34531 | 11.82597 | 27407 ft | 446 kts | 272° |
| 2026-05-07 17:20 | 52.34636 | 11.77522 | 27705 ft | 448 kts | 271° |
| 2026-05-07 17:20 | 52.34741 | 11.72423 | 28016 ft | 450 kts | 271° |
| 2026-05-07 17:20 | 52.34845 | 11.67301 | 28330 ft | 452 kts | 271° |
| 2026-05-07 17:21 | 52.34951 | 11.62152 | 28618 ft | 454 kts | 271° |
| 2026-05-07 17:21 | 52.35057 | 11.56981 | 28910 ft | 456 kts | 271° |
| 2026-05-07 17:21 | 52.35161 | 11.51798 | 29320 ft | 455 kts | 271° |
| 2026-05-07 17:21 | 52.35266 | 11.46626 | 29746 ft | 455 kts | 271° |
| 2026-05-07 17:22 | 52.35367 | 11.41473 | 30251 ft | 451 kts | 272° |
| 2026-05-07 17:22 | 52.35462 | 11.36362 | 30688 ft | 448 kts | 271° |
| 2026-05-07 17:22 | 52.35552 | 11.31272 | 31040 ft | 448 kts | 271° |
| 2026-05-07 17:22 | 52.35640 | 11.26180 | 31376 ft | 448 kts | 271° |
| 2026-05-07 17:23 | 52.35726 | 11.21089 | 31723 ft | 447 kts | 271° |
| 2026-05-07 17:23 | 52.35810 | 11.16001 | 32039 ft | 448 kts | 271° |
| 2026-05-07 17:23 | 52.35891 | 11.10909 | 32355 ft | 448 kts | 271° |
| 2026-05-07 17:23 | 52.35970 | 11.05812 | 32693 ft | 448 kts | 271° |
| 2026-05-07 17:24 | 52.36045 | 11.00793 | 33026 ft | 448 kts | 271° |
| 2026-05-07 17:24 | 52.36122 | 10.95703 | 33341 ft | 448 kts | 272° |
| 2026-05-07 17:24 | 52.36197 | 10.90608 | 33663 ft | 448 kts | 271° |
| 2026-05-07 17:24 | 52.36269 | 10.85511 | 33996 ft | 448 kts | 271° |
| 2026-05-07 17:25 | 52.36272 | 10.80408 | 34270 ft | 449 kts | 266° |
| 2026-05-07 17:25 | 52.35854 | 10.75355 | 34563 ft | 448 kts | 258° |
| 2026-05-07 17:25 | 52.35239 | 10.70363 | 34856 ft | 448 kts | 258° |
| 2026-05-07 17:25 | 52.34630 | 10.65374 | 35154 ft | 447 kts | 258° |
| 2026-05-07 17:26 | 52.34028 | 10.60407 | 35444 ft | 446 kts | 258° |
| 2026-05-07 17:26 | 52.33429 | 10.55426 | 35711 ft | 446 kts | 258° |
| 2026-05-07 17:26 | 52.32830 | 10.50459 | 35952 ft | 446 kts | 258° |
| 2026-05-07 17:26 | 52.32226 | 10.45487 | 36084 ft | 447 kts | 258° |
| 2026-05-07 17:27 | 52.31003 | 10.35523 | 36104 ft | 447 kts | 258° |
| 2026-05-07 17:27 | 52.30581 | 10.25457 | 36089 ft | 447 kts | 275° |
| 2026-05-07 17:28 | 52.31226 | 10.15425 | 36086 ft | 447 kts | 275° |
| 2026-05-07 17:28 | 52.31897 | 10.05331 | 36108 ft | 447 kts | 275° |
| 2026-05-07 17:29 | 52.32550 | 9.95214 | 36116 ft | 448 kts | 276° |
| 2026-05-07 17:29 | 52.33186 | 9.85096 | 36114 ft | 447 kts | 275° |
| 2026-05-07 17:30 | 52.33822 | 9.74979 | 36123 ft | 447 kts | 275° |
| 2026-05-07 17:30 | 52.34457 | 9.64864 | 36112 ft | 447 kts | 275° |
| 2026-05-07 17:31 | 52.35073 | 9.54748 | 36117 ft | 447 kts | 275° |
| 2026-05-07 17:31 | 52.35677 | 9.44642 | 36116 ft | 446 kts | 275° |
| 2026-05-07 17:32 | 52.36260 | 9.34540 | 36113 ft | 447 kts | 275° |
| 2026-05-07 17:32 | 52.36743 | 9.26135 | 36106 ft | 447 kts | 275° |
| 2026-05-07 17:33 | 52.37423 | 9.14377 | 36116 ft | 446 kts | 275° |
| 2026-05-07 17:33 | 52.37999 | 9.04260 | 36111 ft | 446 kts | 275° |
| 2026-05-07 17:34 | 52.38564 | 8.94148 | 36113 ft | 446 kts | 275° |
| 2026-05-07 17:34 | 52.39122 | 8.84023 | 36107 ft | 446 kts | 275° |
| 2026-05-07 17:35 | 52.39670 | 8.73902 | 36109 ft | 446 kts | 274° |
| 2026-05-07 17:35 | 52.40205 | 8.63776 | 36113 ft | 446 kts | 274° |
| 2026-05-07 17:36 | 52.40728 | 8.53657 | 36110 ft | 446 kts | 274° |
| 2026-05-07 17:36 | 52.41249 | 8.43524 | 36116 ft | 446 kts | 274° |
| 2026-05-07 17:37 | 52.41766 | 8.33403 | 36116 ft | 446 kts | 274° |
| 2026-05-07 17:37 | 52.42266 | 8.23295 | 36118 ft | 445 kts | 274° |
| 2026-05-07 17:38 | 52.42753 | 8.13252 | 36110 ft | 445 kts | 274° |
| 2026-05-07 17:38 | 52.42645 | 8.08194 | 35944 ft | 437 kts | 267° |
| 2026-05-07 17:38 | 52.42662 | 8.03229 | 36051 ft | 439 kts | 273° |
| 2026-05-07 17:39 | 52.43383 | 7.93225 | 36052 ft | 443 kts | 277° |
| 2026-05-07 17:39 | 52.44189 | 7.83204 | 36054 ft | 444 kts | 275° |
| 2026-05-07 17:40 | 52.44723 | 7.73137 | 36050 ft | 443 kts | 273° |
| 2026-05-07 17:40 | 52.45109 | 7.63051 | 36047 ft | 444 kts | 272° |
| 2026-05-07 17:41 | 52.45500 | 7.52962 | 36041 ft | 443 kts | 273° |
| 2026-05-07 17:41 | 52.45929 | 7.42880 | 36046 ft | 444 kts | 273° |
| 2026-05-07 17:42 | 52.46361 | 7.32777 | 36040 ft | 444 kts | 273° |
| 2026-05-07 17:42 | 52.46779 | 7.22673 | 36039 ft | 444 kts | 273° |
| 2026-05-07 17:43 | 52.47185 | 7.12566 | 36037 ft | 444 kts | 273° |
| 2026-05-07 17:43 | 52.47585 | 7.02485 | 36032 ft | 444 kts | 272° |
| 2026-05-07 17:44 | 52.47970 | 6.92337 | 36029 ft | 444 kts | 272° |
| 2026-05-07 17:44 | 52.48349 | 6.82230 | 36027 ft | 444 kts | 272° |
| 2026-05-07 17:45 | 52.48775 | 6.77294 | 36014 ft | 445 kts | 284° |
| 2026-05-07 17:45 | 52.49686 | 6.72435 | 36018 ft | 446 kts | 286° |
| 2026-05-07 17:45 | 52.51557 | 6.62728 | 36017 ft | 446 kts | 286° |
| 2026-05-07 17:46 | 52.53434 | 6.53028 | 36023 ft | 446 kts | 286° |
| 2026-05-07 17:46 | 52.55290 | 6.43304 | 36022 ft | 446 kts | 286° |
| 2026-05-07 17:47 | 52.57135 | 6.33573 | 36027 ft | 446 kts | 286° |
| 2026-05-07 17:47 | 52.58979 | 6.23837 | 36029 ft | 446 kts | 286° |
| 2026-05-07 17:48 | 52.60821 | 6.14105 | 36038 ft | 446 kts | 286° |
| 2026-05-07 17:48 | 52.62344 | 6.05973 | 36020 ft | 447 kts | 285° |
| 2026-05-07 17:49 | 52.64157 | 5.96161 | 36021 ft | 449 kts | 285° |
| 2026-05-07 17:49 | 52.66273 | 5.84722 | 36021 ft | 449 kts | 285° |
| 2026-05-07 17:50 | 52.68097 | 5.74880 | 36030 ft | 449 kts | 285° |
| 2026-05-07 17:50 | 52.69897 | 5.65050 | 36026 ft | 449 kts | 285° |
| 2026-05-07 17:51 | 52.71405 | 5.56767 | 36043 ft | 449 kts | 285° |
| 2026-05-07 17:51 | 52.73181 | 5.46955 | 36032 ft | 450 kts | 285° |
| 2026-05-07 17:52 | 52.74970 | 5.37059 | 36044 ft | 450 kts | 285° |
| 2026-05-07 17:52 | 52.76755 | 5.27153 | 36042 ft | 450 kts | 285° |
| 2026-05-07 17:53 | 52.78524 | 5.17235 | 36048 ft | 450 kts | 284° |
| 2026-05-07 17:53 | 52.80283 | 5.07310 | 36048 ft | 450 kts | 285° |
| 2026-05-07 17:54 | 52.82036 | 4.97368 | 36057 ft | 451 kts | 285° |
| 2026-05-07 17:54 | 52.83787 | 4.87402 | 36061 ft | 451 kts | 284° |
| 2026-05-07 17:55 | 52.85529 | 4.77440 | 36061 ft | 451 kts | 284° |
| 2026-05-07 17:55 | 52.87263 | 4.67457 | 36051 ft | 451 kts | 284° |
| 2026-05-07 17:56 | 52.88973 | 4.57537 | 36054 ft | 451 kts | 284° |
| 2026-05-07 17:56 | 52.90691 | 4.47542 | 36054 ft | 451 kts | 284° |
| 2026-05-07 17:57 | 52.92401 | 4.37549 | 36054 ft | 451 kts | 284° |
| 2026-05-07 17:57 | 52.94108 | 4.27513 | 36053 ft | 454 kts | 284° |
| 2026-05-07 17:58 | 52.95814 | 4.17405 | 36053 ft | 455 kts | 284° |
| 2026-05-07 17:58 | 52.97508 | 4.07279 | 36052 ft | 455 kts | 284° |
| 2026-05-07 17:59 | 52.99191 | 3.97143 | 36058 ft | 456 kts | 284° |
| 2026-05-07 17:59 | 53.00877 | 3.87002 | 36059 ft | 456 kts | 284° |
| 2026-05-07 18:00 | 53.02548 | 3.76845 | 36070 ft | 456 kts | 284° |
| 2026-05-07 18:00 | 53.04215 | 3.66690 | 36069 ft | 456 kts | 284° |
| 2026-05-07 18:01 | 53.05863 | 3.56592 | 36069 ft | 456 kts | 284° |
| 2026-05-07 18:01 | 53.07510 | 3.46411 | 36069 ft | 456 kts | 284° |
| 2026-05-07 18:02 | 53.09966 | 3.31110 | 36062 ft | 457 kts | 283° |
| 2026-05-07 18:03 | 53.11466 | 3.20846 | 36056 ft | 456 kts | 281° |
| 2026-05-07 18:03 | 53.12789 | 3.10519 | 36056 ft | 456 kts | 281° |
| 2026-05-07 18:04 | 53.14097 | 3.00178 | 36060 ft | 457 kts | 281° |
| 2026-05-07 18:04 | 53.15433 | 2.89832 | 36062 ft | 457 kts | 281° |
| 2026-05-07 18:05 | 53.16775 | 2.79495 | 36053 ft | 457 kts | 281° |
| 2026-05-07 18:05 | 53.18118 | 2.69146 | 36055 ft | 457 kts | 281° |
| 2026-05-07 18:06 | 53.19437 | 2.58862 | 36059 ft | 457 kts | 281° |
| 2026-05-07 18:06 | 53.20747 | 2.48516 | 36056 ft | 456 kts | 280° |
| 2026-05-07 18:07 | 53.22053 | 2.38151 | 36058 ft | 456 kts | 280° |
| 2026-05-07 18:07 | 53.23356 | 2.27792 | 36053 ft | 457 kts | 280° |
| 2026-05-07 18:08 | 53.24651 | 2.17380 | 36055 ft | 459 kts | 280° |
| 2026-05-07 18:08 | 53.25941 | 2.06941 | 36056 ft | 459 kts | 280° |
| 2026-05-07 18:09 | 53.27215 | 1.96499 | 36047 ft | 459 kts | 280° |
| 2026-05-07 18:09 | 53.28495 | 1.86045 | 36048 ft | 459 kts | 280° |
| 2026-05-07 18:10 | 53.29763 | 1.75585 | 36045 ft | 459 kts | 280° |
| 2026-05-07 18:10 | 53.31013 | 1.65125 | 36051 ft | 459 kts | 279° |
| 2026-05-07 18:11 | 53.32246 | 1.54657 | 36053 ft | 459 kts | 279° |
| 2026-05-07 18:11 | 53.33553 | 1.44285 | 36047 ft | 459 kts | 282° |
| 2026-05-07 18:12 | 53.35102 | 1.33924 | 36043 ft | 459 kts | 283° |
| 2026-05-07 18:12 | 53.36673 | 1.23573 | 36044 ft | 459 kts | 282° |
| 2026-05-07 18:13 | 53.38168 | 1.13188 | 36041 ft | 459 kts | 281° |
| 2026-05-07 18:13 | 53.39630 | 1.02791 | 36044 ft | 459 kts | 281° |
| 2026-05-07 18:14 | 53.41094 | 0.92395 | 36035 ft | 458 kts | 281° |
| 2026-05-07 18:14 | 53.42550 | 0.82005 | 36033 ft | 458 kts | 281° |
| 2026-05-07 18:15 | 53.43997 | 0.71602 | 36034 ft | 458 kts | 281° |
| 2026-05-07 18:15 | 53.45448 | 0.61198 | 36037 ft | 458 kts | 281° |
| 2026-05-07 18:16 | 53.46881 | 0.50790 | 36038 ft | 457 kts | 281° |
| 2026-05-07 18:16 | 53.48297 | 0.40394 | 36021 ft | 456 kts | 281° |
| 2026-05-07 18:17 | 53.49700 | 0.30015 | 36020 ft | 456 kts | 281° |
| 2026-05-07 18:17 | 53.51100 | 0.19626 | 36012 ft | 456 kts | 281° |
| 2026-05-07 18:18 | 53.52491 | 0.09250 | 36011 ft | 456 kts | 280° |
| 2026-05-07 18:18 | 53.53863 | -0.01092 | 36016 ft | 456 kts | 280° |
| 2026-05-07 18:19 | 53.55237 | -0.11465 | 36007 ft | 454 kts | 280° |
| 2026-05-07 18:19 | 53.56721 | -0.21799 | 36005 ft | 456 kts | 288° |
| 2026-05-07 18:20 | 53.59798 | -0.31133 | 36008 ft | 461 kts | 308° |
| 2026-05-07 18:20 | 53.64602 | -0.38291 | 36009 ft | 464 kts | 324° |
| 2026-05-07 18:21 | 53.69942 | -0.44430 | 36006 ft | 465 kts | 324° |
| 2026-05-07 18:21 | 53.75283 | -0.50596 | 36004 ft | 466 kts | 324° |
| 2026-05-07 18:22 | 53.80642 | -0.56817 | 36003 ft | 468 kts | 324° |
| 2026-05-07 18:22 | 53.86018 | -0.63069 | 35997 ft | 468 kts | 324° |
| 2026-05-07 18:23 | 53.91345 | -0.69292 | 35997 ft | 468 kts | 324° |
| 2026-05-07 18:23 | 53.96709 | -0.75586 | 35996 ft | 469 kts | 324° |
| 2026-05-07 18:24 | 54.02074 | -0.81893 | 35996 ft | 470 kts | 324° |
| 2026-05-07 18:24 | 54.07574 | -0.87905 | 35991 ft | 471 kts | 328° |
| 2026-05-07 18:25 | 54.13268 | -0.93426 | 35990 ft | 471 kts | 330° |
| 2026-05-07 18:25 | 54.18979 | -0.98907 | 35985 ft | 471 kts | 329° |
| 2026-05-07 18:26 | 54.24637 | -1.04542 | 35987 ft | 471 kts | 328° |
| 2026-05-07 18:26 | 54.30286 | -1.10270 | 35979 ft | 472 kts | 328° |
| 2026-05-07 18:27 | 54.35945 | -1.15995 | 35980 ft | 473 kts | 328° |
| 2026-05-07 18:27 | 54.41609 | -1.21738 | 35979 ft | 473 kts | 328° |
| 2026-05-07 18:28 | 54.47266 | -1.27498 | 35979 ft | 473 kts | 328° |
| 2026-05-07 18:28 | 54.52929 | -1.33275 | 35979 ft | 473 kts | 328° |
| 2026-05-07 18:29 | 54.58595 | -1.39080 | 35980 ft | 474 kts | 328° |
| 2026-05-07 18:29 | 54.64251 | -1.44889 | 35977 ft | 474 kts | 328° |
| 2026-05-07 18:30 | 54.69915 | -1.50721 | 35974 ft | 474 kts | 328° |
| 2026-05-07 18:30 | 54.75539 | -1.56526 | 35970 ft | 474 kts | 328° |
| 2026-05-07 18:31 | 54.81197 | -1.62392 | 35726 ft | 474 kts | 327° |
| 2026-05-07 18:31 | 54.84032 | -1.65344 | 35491 ft | 475 kts | 327° |
| 2026-05-07 18:31 | 54.86873 | -1.68309 | 35239 ft | 477 kts | 327° |
| 2026-05-07 18:31 | 54.89715 | -1.71284 | 34995 ft | 478 kts | 327° |
| 2026-05-07 18:32 | 54.92570 | -1.74273 | 34183 ft | 483 kts | 327° |
| 2026-05-07 18:32 | 54.95464 | -1.77305 | 33058 ft | 489 kts | 327° |
| 2026-05-07 18:32 | 54.98398 | -1.80378 | 31964 ft | 494 kts | 327° |
| 2026-05-07 18:32 | 55.01350 | -1.83469 | 30969 ft | 497 kts | 327° |
| 2026-05-07 18:33 | 55.04311 | -1.86574 | 29861 ft | 496 kts | 327° |
| 2026-05-07 18:33 | 55.07244 | -1.89665 | 28234 ft | 490 kts | 326° |
| 2026-05-07 18:33 | 55.09970 | -1.93093 | 26946 ft | 476 kts | 317° |
| 2026-05-07 18:33 | 55.12314 | -1.97053 | 25695 ft | 463 kts | 308° |
| 2026-05-07 18:34 | 55.14277 | -2.01488 | 24914 ft | 460 kts | 301° |
| 2026-05-07 18:34 | 55.15918 | -2.06245 | 24118 ft | 454 kts | 297° |
| 2026-05-07 18:34 | 55.17485 | -2.11003 | 23271 ft | 449 kts | 297° |
| 2026-05-07 18:34 | 55.19036 | -2.15703 | 22455 ft | 443 kts | 297° |
| 2026-05-07 18:35 | 55.20567 | -2.20346 | 21695 ft | 438 kts | 296° |
| 2026-05-07 18:35 | 55.22073 | -2.24936 | 20926 ft | 432 kts | 296° |
| 2026-05-07 18:35 | 55.23554 | -2.29475 | 20247 ft | 426 kts | 296° |
| 2026-05-07 18:35 | 55.24999 | -2.33919 | 20039 ft | 427 kts | 296° |
| 2026-05-07 18:36 | 55.26466 | -2.38432 | 19959 ft | 424 kts | 296° |
| 2026-05-07 18:36 | 55.27944 | -2.42982 | 19979 ft | 425 kts | 296° |
| 2026-05-07 18:36 | 55.29386 | -2.47428 | 19783 ft | 424 kts | 296° |
| 2026-05-07 18:36 | 55.30853 | -2.51953 | 18657 ft | 430 kts | 296° |
| 2026-05-07 18:37 | 55.32335 | -2.56531 | 17701 ft | 431 kts | 296° |
| 2026-05-07 18:37 | 55.33805 | -2.61089 | 16886 ft | 427 kts | 296° |
| 2026-05-07 18:37 | 55.35398 | -2.65459 | 16216 ft | 424 kts | 306° |
| 2026-05-07 18:37 | 55.37523 | -2.68944 | 15986 ft | 415 kts | 320° |
| 2026-05-07 18:38 | 55.39820 | -2.71955 | 15976 ft | 410 kts | 320° |
| 2026-05-07 18:38 | 55.42108 | -2.74944 | 15673 ft | 409 kts | 320° |
| 2026-05-07 18:38 | 55.44416 | -2.77955 | 14634 ft | 416 kts | 320° |
| 2026-05-07 18:38 | 55.46707 | -2.80938 | 14372 ft | 401 kts | 320° |
| 2026-05-07 18:39 | 55.48904 | -2.83791 | 14243 ft | 384 kts | 320° |
| 2026-05-07 18:39 | 55.51012 | -2.86533 | 14139 ft | 369 kts | 320° |
| 2026-05-07 18:39 | 55.53039 | -2.89174 | 14022 ft | 355 kts | 319° |
| 2026-05-07 18:39 | 55.55001 | -2.91713 | 13652 ft | 350 kts | 322° |
| 2026-05-07 18:40 | 55.57273 | -2.93519 | 12601 ft | 370 kts | 343° |
| 2026-05-07 18:40 | 55.59879 | -2.93908 | 11568 ft | 384 kts | 359° |
| 2026-05-07 18:40 | 55.62567 | -2.93769 | 10813 ft | 386 kts | 360° |
| 2026-05-07 18:40 | 55.65244 | -2.93602 | 10264 ft | 381 kts | 360° |
| 2026-05-07 18:41 | 55.67835 | -2.93428 | 10135 ft | 363 kts | 360° |
| 2026-05-07 18:41 | 55.70301 | -2.93262 | 10011 ft | 347 kts | 359° |
| 2026-05-07 18:41 | 55.72669 | -2.93094 | 9887 ft | 334 kts | 360° |
| 2026-05-07 18:41 | 55.74920 | -2.92915 | 9754 ft | 322 kts | 360° |
| 2026-05-07 18:42 | 55.77116 | -2.92756 | 9617 ft | 310 kts | 360° |
| 2026-05-07 18:42 | 55.79233 | -2.92613 | 9440 ft | 301 kts | 360° |
| 2026-05-07 18:42 | 55.81313 | -2.92464 | 9092 ft | 297 kts | 360° |
| 2026-05-07 18:42 | 55.83371 | -2.92320 | 8726 ft | 295 kts | 360° |
| 2026-05-07 18:43 | 55.85420 | -2.92172 | 8346 ft | 294 kts | 360° |
| 2026-05-07 18:43 | 55.87454 | -2.92024 | 7946 ft | 292 kts | 360° |
| 2026-05-07 18:43 | 55.89475 | -2.91879 | 7569 ft | 290 kts | 360° |
| 2026-05-07 18:43 | 55.91489 | -2.91732 | 7178 ft | 289 kts | 360° |
| 2026-05-07 18:44 | 55.93472 | -2.91584 | 6959 ft | 281 kts | 360° |
| 2026-05-07 18:44 | 55.95399 | -2.91430 | 6715 ft | 275 kts | 360° |
| 2026-05-07 18:44 | 55.97302 | -2.91279 | 6352 ft | 273 kts | 359° |
| 2026-05-07 18:44 | 55.99194 | -2.91179 | 5969 ft | 269 kts | 352° |
| 2026-05-07 18:45 | 56.00972 | -2.92044 | 5446 ft | 266 kts | 332° |
| 2026-05-07 18:45 | 56.02644 | -2.93427 | 4878 ft | 263 kts | 330° |
| 2026-05-07 18:45 | 56.04154 | -2.95121 | 4301 ft | 250 kts | 309° |
| 2026-05-07 18:45 | 56.04984 | -2.97703 | 3730 ft | 235 kts | 278° |
| 2026-05-07 18:46 | 56.05215 | -3.00533 | 3182 ft | 227 kts | 270° |
| 2026-05-07 18:46 | 56.05310 | -3.02350 | 3036 ft | 215 kts | 270° |
| 2026-05-07 18:46 | 56.05403 | -3.04922 | 3015 ft | 204 kts | 262° |
| 2026-05-07 18:46 | 56.05057 | -3.07315 | 3009 ft | 197 kts | 240° |
| 2026-05-07 18:47 | 56.04365 | -3.09417 | 3012 ft | 196 kts | 237° |
| 2026-05-07 18:47 | 56.03666 | -3.11502 | 3010 ft | 196 kts | 237° |
| 2026-05-07 18:47 | 56.02966 | -3.13593 | 2937 ft | 195 kts | 237° |
| 2026-05-07 18:47 | 56.02273 | -3.15658 | 2733 ft | 193 kts | 237° |
| 2026-05-07 18:48 | 56.01586 | -3.17706 | 2480 ft | 191 kts | 237° |
| 2026-05-07 18:48 | 56.00916 | -3.19702 | 2219 ft | 183 kts | 236° |
| 2026-05-07 18:48 | 56.00276 | -3.21606 | 1978 ft | 176 kts | 236° |
| 2026-05-07 18:48 | 55.99660 | -3.23438 | 1771 ft | 168 kts | 236° |
| 2026-05-07 18:49 | 55.99069 | -3.25192 | 1511 ft | 159 kts | 236° |
| 2026-05-07 18:49 | 55.98520 | -3.26822 | 1319 ft | 147 kts | 235° |
| 2026-05-07 18:49 | 55.98017 | -3.28316 | 1112 ft | 136 kts | 234° |
| 2026-05-07 18:49 | 55.97546 | -3.29709 | 932 ft | 133 kts | 237° |
| 2026-05-07 18:50 | 55.97075 | -3.31105 | 750 ft | 128 kts | 236° |
| 2026-05-07 18:50 | 55.96611 | -3.32476 | 574 ft | 129 kts | 235° |
| 2026-05-07 18:50 | 55.96155 | -3.33826 | 410 ft | 125 kts | 234° |
| 2026-05-07 18:50 | 55.95699 | -3.35141 | 206 ft | 123 kts | 236° |
| 2026-05-07 18:51 | 55.95269 | -3.36403 | 102 ft | 105 kts | 239° |
| 2026-05-07 18:51 | 55.94992 | -3.37271 | 106 ft | 56 kts | 238° |
| 2026-05-07 18:51 | 55.94858 | -3.37655 | 112 ft | 28 kts | 238° |
| 2026-05-07 18:51 | 55.94754 | -3.37951 | 115 ft | 26 kts | 239° |
| 2026-05-07 18:52 | 55.94643 | -3.37999 | 113 ft | 4 kts | 150° |
| 2026-05-07 18:52 | 55.94623 | -3.37978 | 112 ft | 0 kts | 149° |
| 2026-05-07 18:52 | 55.94622 | -3.37976 | 113 ft | 1 kts | 149° |
| 2026-05-07 18:52 | 55.94617 | -3.37972 | 113 ft | 1 kts | 149° |
| 2026-05-07 18:53 | 55.94611 | -3.37965 | 112 ft | 1 kts | 149° |
| 2026-05-07 18:53 | 55.94606 | -3.37960 | 111 ft | 1 kts | 149° |
| 2026-05-07 18:53 | 55.94604 | -3.37958 | 111 ft | 0 kts | 149° |
| 2026-05-07 18:53 | 55.94595 | -3.37945 | 112 ft | 6 kts | 135° |
| 2026-05-07 18:54 | 55.94617 | -3.37803 | 112 ft | 19 kts | 60° |
| 2026-05-07 18:54 | 55.94707 | -3.37533 | 110 ft | 33 kts | 58° |
| 2026-05-07 18:54 | 55.94841 | -3.37146 | 105 ft | 39 kts | 59° |
| 2026-05-07 18:54 | 55.94988 | -3.36712 | 107 ft | 42 kts | 59° |
| 2026-05-07 18:55 | 55.95134 | -3.36265 | 103 ft | 29 kts | 66° |
| 2026-05-07 18:55 | 55.95090 | -3.35988 | 106 ft | 21 kts | 106° |
| 2026-05-07 18:55 | 55.94991 | -3.35857 | 106 ft | 19 kts | 194° |
| 2026-05-07 18:55 | 55.94905 | -3.35820 | 107 ft | 5 kts | 193° |
| 2026-05-07 18:56 | 55.94865 | -3.35857 | 106 ft | 0 kts | 210° |
| 2026-05-07 18:56 | 55.94852 | -3.35870 | 108 ft | 0 kts | 210° |
| 2026-05-07 18:56 | 55.94847 | -3.35875 | 108 ft | 0 kts | 210° |